Time;durP1;ratioP1;P1;durP2;ratioP2;P2;SDS_P1;SDS_P2;PMS_P1;PMS_P2;Temp;Humidity;BMP_temperature;BMP_pressure;BME280_temperature;BME280_humidity;BME280_pressure;Samples;Min_cycle;Max_cycle;Signal;HPM_P1;HPM_P2
2021/05/28 00:03:19;;;;;;;;;;;8.60;99.90;;;;;;8323860;28;19916;-66
2021/05/28 00:07:19;;;;;;;;;;;8.50;99.90;;;;;;8325476;28;20390;-65
2021/05/28 00:11:20;;;;;;;;;;;8.40;99.90;;;;;;8325646;28;20000;-66
2021/05/28 00:15:20;;;;;;;;;;;8.20;99.90;;;;;;8307481;28;19917;-66
2021/05/28 00:19:21;;;;;;;;;;;8.20;99.90;;;;;;8325323;28;20021;-66
2021/05/28 00:23:21;;;;;;;;;;;8.10;99.90;;;;;;8325452;28;19909;-65
2021/05/28 00:27:23;;;;;;;;;;;8.10;99.90;;;;;;8307842;28;20055;-66
2021/05/28 00:31:24;;;;;;;;;;;8.00;99.90;;;;;;8307481;28;20437;-65
2021/05/28 00:35:24;;;;;;;;;;;8.20;99.90;;;;;;8325207;28;20003;-66
2021/05/28 00:39:25;;;;;;;;;;;8.10;99.90;;;;;;8328010;28;19928;-66
2021/05/28 00:43:25;;;;;;;;;;;7.80;99.90;;;;;;8346990;28;19909;-65
2021/05/28 00:47:26;;;;;;;;;;;8.20;99.90;;;;;;8331215;28;19909;-66
2021/05/28 00:51:26;;;;;;;;;;;7.70;99.90;;;;;;8313319;28;19913;-65
2021/05/28 00:55:27;;;;;;;;;;;7.80;99.90;;;;;;8313265;28;19963;-65
2021/05/28 00:59:27;;;;;;;;;;;7.60;99.90;;;;;;8330574;28;19956;-66
2021/05/28 01:03:28;;;;;;;;;;;7.40;99.90;;;;;;8330737;28;20531;-65
2021/05/28 01:07:28;;;;;;;;;;;7.60;99.90;;;;;;8330982;28;20401;-65
2021/05/28 01:11:29;;;;;;;;;;;7.50;99.90;;;;;;8330424;28;19956;-65
2021/05/28 01:15:30;;;;;;;;;;;7.30;99.90;;;;;;8330427;28;19928;-66
2021/05/28 01:19:30;;;;;;;;;;;7.40;99.90;;;;;;8312333;28;19925;-65
2021/05/28 01:23:31;;;;;;;;;;;7.20;99.90;;;;;;8330250;28;19909;-65
2021/05/28 01:27:31;;;;;;;;;;;7.30;99.90;;;;;;8329279;28;20415;-66
2021/05/28 01:31:32;;;;;;;;;;;7.20;99.90;;;;;;8328237;28;19975;-66
2021/05/28 01:35:32;;;;;;;;;;;7.10;99.90;;;;;;8329043;28;19916;-66
2021/05/28 01:39:33;;;;;;;;;;;6.90;99.90;;;;;;8329720;28;19916;-66
2021/05/28 01:43:34;;;;;;;;;;;6.90;99.90;;;;;;8329878;28;19916;-66
2021/05/28 01:47:34;;;;;;;;;;;6.90;99.90;;;;;;8329605;28;20295;-65
2021/05/28 01:51:35;;;;;;;;;;;7.10;99.90;;;;;;8311736;28;20387;-65
2021/05/28 01:55:35;;;;;;;;;;;7.00;99.90;;;;;;8329537;28;19909;-66
2021/05/28 01:59:36;;;;;;;;;;;6.80;99.90;;;;;;8311324;28;19917;-66
2021/05/28 02:03:37;;;;;;;;;;;6.50;99.90;;;;;;8329925;28;20394;-66
2021/05/28 02:07:38;;;;;;;;;;;6.60;99.90;;;;;;8329288;28;19964;-66
2021/05/28 02:11:38;;;;;;;;;;;6.50;99.90;;;;;;8328984;28;19957;-65
2021/05/28 02:15:39;;;;;;;;;;;6.40;99.90;;;;;;8351938;22;19932;-64
2021/05/28 02:19:39;;;;;;;;;;;6.30;99.90;;;;;;8328005;28;19909;-64
2021/05/28 02:23:40;;;;;;;;;;;6.40;99.90;;;;;;8328130;28;20378;-65
2021/05/28 02:27:41;;;;;;;;;;;6.50;99.90;;;;;;8328115;28;19920;-65
2021/05/28 02:31:42;;;;;;;;;;;6.40;99.90;;;;;;8327484;28;20303;-65
2021/05/28 02:35:42;;;;;;;;;;;6.40;99.90;;;;;;8326771;28;19909;-64
2021/05/28 02:39:43;;;;;;;;;;;6.50;99.90;;;;;;8326740;28;19920;-65
2021/05/28 02:43:43;;;;;;;;;;;6.30;99.90;;;;;;8327274;28;19920;-65
2021/05/28 02:47:43;;;;;;;;;;;6.10;99.90;;;;;;8326976;28;19909;-64
2021/05/28 02:51:44;;;;;;;;;;;6.20;99.90;;;;;;8326897;28;19955;-64
2021/05/28 02:55:45;;;;;;;;;;;6.10;99.90;;;;;;8309314;28;19947;-64
2021/05/28 02:59:45;;;;;;;;;;;6.20;99.90;;;;;;8308396;28;19916;-64
2021/05/28 03:03:46;;;;;;;;;;;6.30;99.90;;;;;;8326237;28;19909;-64
2021/05/28 03:07:46;;;;;;;;;;;6.20;99.90;;;;;;8326033;28;19909;-65
2021/05/28 03:11:46;;;;;;;;;;;6.00;99.90;;;;;;8324851;28;19917;-64
2021/05/28 03:15:47;;;;;;;;;;;5.90;99.90;;;;;;8325686;28;19929;-65
2021/05/28 03:19:48;;;;;;;;;;;5.70;99.90;;;;;;8325677;28;20008;-64
2021/05/28 03:23:53;;;;;;;;;;;5.80;99.90;;;;;;8306782;28;20239;-64
2021/05/28 03:27:54;;;;;;;;;;;5.70;99.90;;;;;;8318007;28;19921;-64
2021/05/28 03:31:54;;;;;;;;;;;5.60;99.90;;;;;;8323071;28;20424;-64
2021/05/28 03:35:55;;;;;;;;;;;5.60;99.90;;;;;;8325682;28;19917;-65
2021/05/28 03:39:55;;;;;;;;;;;5.70;99.90;;;;;;8325396;28;20277;-64
2021/05/28 03:43:56;;;;;;;;;;;5.70;99.90;;;;;;8339207;28;20375;-65
2021/05/28 03:47:56;;;;;;;;;;;5.70;99.90;;;;;;8324368;28;19964;-65
2021/05/28 03:51:57;;;;;;;;;;;5.80;99.90;;;;;;8306712;28;19917;-65
2021/05/28 03:55:57;;;;;;;;;;;5.80;99.90;;;;;;8324959;28;19914;-64
2021/05/28 03:59:58;;;;;;;;;;;5.80;99.90;;;;;;8341442;28;19913;-65
2021/05/28 04:03:58;;;;;;;;;;;5.90;99.90;;;;;;8345967;28;19910;-64
2021/05/28 04:07:59;;;;;;;;;;;6.20;99.90;;;;;;8324821;28;19920;-65
2021/05/28 04:11:59;;;;;;;;;;;6.10;99.90;;;;;;8307346;28;20385;-65
2021/05/28 04:16:00;;;;;;;;;;;6.10;99.90;;;;;;8330946;28;20008;-65
2021/05/28 04:20:01;;;;;;;;;;;6.20;99.90;;;;;;8331654;28;19913;-65
2021/05/28 04:24:01;;;;;;;;;;;6.50;99.90;;;;;;8331948;28;19956;-65
2021/05/28 04:28:02;;;;;;;;;;;6.70;99.90;;;;;;8342349;28;19920;-65
2021/05/28 04:32:02;;;;;;;;;;;6.90;99.90;;;;;;8359981;28;19926;-65
2021/05/28 04:36:03;;;;;;;;;;;7.10;99.90;;;;;;8346475;28;19961;-65
2021/05/28 04:40:04;;;;;;;;;;;7.10;99.90;;;;;;8298407;28;20349;-65
2021/05/28 04:44:04;;;;;;;;;;;7.30;99.90;;;;;;8305883;28;19913;-65
2021/05/28 04:48:06;;;;;;;;;;;7.50;99.90;;;;;;8347425;28;19917;-65
2021/05/28 04:52:06;;;;;;;;;;;7.80;99.90;;;;;;8338188;28;20371;-64
2021/05/28 04:56:07;;;;;;;;;;;8.00;99.90;;;;;;8358224;28;19947;-66
2021/05/28 05:00:07;;;;;;;;;;;8.20;99.90;;;;;;8331896;28;19945;-66
2021/05/28 05:04:08;;;;;;;;;;;8.30;99.90;;;;;;8329141;28;20435;-66
2021/05/28 05:08:08;;;;;;;;;;;8.80;99.90;;;;;;8329372;28;19979;-66
2021/05/28 05:12:09;;;;;;;;;;;8.90;99.90;;;;;;8331838;28;20008;-64
2021/05/28 05:16:09;;;;;;;;;;;9.20;99.90;;;;;;8360524;28;20482;-64
2021/05/28 05:20:10;;;;;;;;;;;9.40;99.90;;;;;;8352360;28;19919;-64
2021/05/28 05:24:11;;;;;;;;;;;9.50;99.90;;;;;;8339604;28;19913;-65
2021/05/28 05:28:12;;;;;;;;;;;10.10;99.90;;;;;;8326016;28;20296;-65
2021/05/28 05:32:12;;;;;;;;;;;10.30;99.90;;;;;;8329566;28;19982;-65
2021/05/28 05:36:12;;;;;;;;;;;10.60;99.90;;;;;;8329295;28;20216;-65
2021/05/28 05:40:13;;;;;;;;;;;10.80;99.90;;;;;;8331403;28;19924;-65
2021/05/28 05:44:13;;;;;;;;;;;11.00;99.90;;;;;;8351425;28;19916;-65
2021/05/28 05:48:15;;;;;;;;;;;11.40;99.90;;;;;;8336414;28;20433;-65
2021/05/28 05:52:15;;;;;;;;;;;11.70;99.90;;;;;;8330994;28;19972;-64
2021/05/28 05:56:16;;;;;;;;;;;11.60;99.90;;;;;;8324044;28;19913;-66
2021/05/28 06:00:17;;;;;;;;;;;12.00;99.90;;;;;;8328427;28;20382;-64
2021/05/28 06:04:17;;;;;;;;;;;12.00;99.90;;;;;;8328283;28;19913;-65
2021/05/28 06:08:18;;;;;;;;;;;12.10;99.90;;;;;;8327906;28;19924;-64
2021/05/28 06:12:18;;;;;;;;;;;12.10;99.90;;;;;;8327870;28;19913;-64
2021/05/28 06:16:18;;;;;;;;;;;12.10;99.90;;;;;;8336072;28;19921;-64
2021/05/28 06:20:19;;;;;;;;;;;12.20;99.90;;;;;;8329026;28;20337;-65
2021/05/28 06:24:19;;;;;;;;;;;12.40;99.90;;;;;;8328684;28;19962;-65
2021/05/28 06:28:20;;;;;;;;;;;12.30;99.90;;;;;;8346152;28;19920;-64
2021/05/28 06:32:20;;;;;;;;;;;12.50;99.90;;;;;;8353161;28;19924;-65
2021/05/28 06:36:21;;;;;;;;;;;12.70;99.90;;;;;;8348451;28;19921;-65
2021/05/28 06:40:21;;;;;;;;;;;13.10;99.90;;;;;;8348719;28;19919;-64
2021/05/28 06:44:23;;;;;;;;;;;13.50;99.90;;;;;;8338473;28;20295;-63
2021/05/28 06:48:24;;;;;;;;;;;13.70;99.90;;;;;;8351577;28;19924;-64
2021/05/28 06:52:24;;;;;;;;;;;13.90;99.90;;;;;;8326714;28;20314;-64
2021/05/28 06:56:25;;;;;;;;;;;14.10;99.90;;;;;;8326379;28;19921;-63
2021/05/28 07:00:25;;;;;;;;;;;14.30;99.90;;;;;;8328391;28;20379;-62
2021/05/28 07:04:26;;;;;;;;;;;14.60;99.90;;;;;;8308855;28;19933;-63
2021/05/28 07:08:26;;;;;;;;;;;14.70;99.90;;;;;;8325868;28;19953;-63
2021/05/28 07:12:27;;;;;;;;;;;14.90;99.90;;;;;;8325918;28;19917;-64
2021/05/28 07:16:30;;;;;;;;;;;14.80;99.90;;;;;;8324366;28;19917;-64
2021/05/28 07:20:31;;;;;;;;;;;14.90;99.90;;;;;;8325290;28;20228;-65
2021/05/28 07:24:32;;;;;;;;;;;15.10;99.90;;;;;;8318668;28;19920;-65
2021/05/28 07:28:32;;;;;;;;;;;15.30;99.90;;;;;;8340928;28;19916;-65
2021/05/28 07:32:33;;;;;;;;;;;15.30;99.90;;;;;;8340257;28;19936;-64
2021/05/28 07:36:33;;;;;;;;;;;15.20;99.90;;;;;;8338359;28;20826;-64
2021/05/28 07:40:34;;;;;;;;;;;15.20;99.90;;;;;;8346495;28;19924;-64
2021/05/28 07:44:34;;;;;;;;;;;14.70;99.90;;;;;;8353198;28;20337;-65
2021/05/28 07:48:35;;;;;;;;;;;15.20;99.90;;;;;;8346963;28;19978;-64
2021/05/28 07:52:36;;;;;;;;;;;15.60;99.90;;;;;;8342177;28;19928;-65
2021/05/28 07:56:36;;;;;;;;;;;15.50;99.90;;;;;;8338098;28;19914;-64
2021/05/28 08:00:37;;;;;;;;;;;15.70;99.90;;;;;;8334728;28;20513;-65
2021/05/28 08:04:37;;;;;;;;;;;15.80;99.90;;;;;;8337486;28;19979;-62
2021/05/28 08:08:38;;;;;;;;;;;16.40;99.90;;;;;;8324627;28;19925;-64
2021/05/28 08:12:38;;;;;;;;;;;16.70;99.90;;;;;;8319096;28;19921;-65
2021/05/28 08:16:39;;;;;;;;;;;16.60;99.90;;;;;;8323100;28;20307;-65
2021/05/28 08:20:40;;;;;;;;;;;16.80;99.90;;;;;;8330398;28;20449;-65
2021/05/28 08:24:40;;;;;;;;;;;16.80;99.90;;;;;;8330341;28;19909;-65
2021/05/28 08:28:41;;;;;;;;;;;17.00;99.90;;;;;;8327462;28;20345;-65
2021/05/28 08:32:41;;;;;;;;;;;17.80;99.90;;;;;;8355829;28;19920;-65
2021/05/28 08:36:42;;;;;;;;;;;17.40;99.90;;;;;;8323424;28;19917;-65
2021/05/28 08:40:42;;;;;;;;;;;17.60;99.90;;;;;;8334522;28;19959;-66
2021/05/28 08:44:43;;;;;;;;;;;17.20;99.90;;;;;;8324508;28;20019;-65
2021/05/28 08:48:43;;;;;;;;;;;16.80;99.90;;;;;;8326552;28;19917;-65
2021/05/28 08:52:44;;;;;;;;;;;16.70;99.90;;;;;;8332989;28;19921;-64
2021/05/28 08:56:49;;;;;;;;;;;16.70;99.90;;;;;;8338791;28;19909;-65
2021/05/28 09:00:50;;;;;;;;;;;16.90;99.90;;;;;;8344428;28;19919;-65
2021/05/28 09:05:09;;;;;;;;;;;16.10;99.90;;;;;;8332509;28;19921;-65
2021/05/28 09:09:13;;;;;;;;;;;15.80;99.90;;;;;;8327374;28;19909;-65
2021/05/28 09:13:21;;;;;;;;;;;15.90;99.90;;;;;;8346206;28;19921;-65
2021/05/28 09:17:21;;;;;;;;;;;16.10;99.90;;;;;;8331233;28;20007;-65
2021/05/28 09:21:23;;;;;;;;;;;16.10;99.90;;;;;;8330422;28;19940;-65
2021/05/28 09:25:24;;;;;;;;;;;17.20;99.90;;;;;;8326548;28;19917;-64
2021/05/28 09:29:24;;;;;;;;;;;17.90;99.90;;;;;;8342830;28;20305;-64
2021/05/28 09:33:25;;;;;;;;;;;17.00;99.90;;;;;;8331064;28;19917;-64
2021/05/28 09:37:41;;;;;;;;;;;17.30;99.90;;;;;;8337336;28;19913;-64
2021/05/28 09:41:55;;;;;;;;;;;17.50;99.90;;;;;;8329223;28;19909;-64
2021/05/28 09:45:55;;;;;;;;;;;17.70;99.90;;;;;;8328782;28;20358;-64
2021/05/28 09:49:56;;;;;;;;;;;17.60;99.90;;;;;;8308880;28;19920;-64
2021/05/28 09:53:56;;;;;;;;;;;17.00;99.90;;;;;;8337573;28;20016;-65
2021/05/28 09:57:57;;;;;;;;;;;17.20;99.90;;;;;;8328954;28;19910;-65
2021/05/28 10:02:02;;;;;;;;;;;17.70;99.90;;;;;;8330244;28;20003;-64
2021/05/28 10:06:02;;;;;;;;;;;18.90;99.90;;;;;;8335779;28;19919;-65
2021/05/28 10:10:03;;;;;;;;;;;20.00;99.90;;;;;;8341221;28;19913;-62
2021/05/28 10:14:04;;;;;;;;;;;20.80;99.90;;;;;;8354292;28;19962;-64
2021/05/28 10:18:05;;;;;;;;;;;20.50;97.90;;;;;;8361703;28;19923;-64
2021/05/28 10:22:06;;;;;;;;;;;20.00;95.90;;;;;;8361371;28;19909;-65
2021/05/28 10:26:06;;;;;;;;;;;19.90;97.70;;;;;;8343403;28;19948;-65
2021/05/28 10:30:13;;;;;;;;;;;19.50;98.80;;;;;;8360349;28;19971;-64
2021/05/28 10:34:14;;;;;;;;;;;19.60;99.90;;;;;;8359799;28;20402;-65
2021/05/28 10:38:29;;;;;;;;;;;19.70;99.90;;;;;;8360684;28;19959;-65
2021/05/28 10:42:50;;;;;;;;;;;20.00;99.90;;;;;;8360470;28;19967;-65
2021/05/28 10:46:51;;;;;;;;;;;20.40;99.90;;;;;;8352656;28;19920;-65
2021/05/28 10:50:52;;;;;;;;;;;21.50;99.90;;;;;;8311497;28;19921;-65
2021/05/28 10:54:54;;;;;;;;;;;22.70;99.30;;;;;;8342760;28;19919;-63
2021/05/28 10:58:58;;;;;;;;;;;24.10;95.50;;;;;;8336314;28;20383;-63
2021/05/28 11:03:17;;;;;;;;;;;24.50;92.50;;;;;;8335822;28;19914;-63
2021/05/28 11:07:18;;;;;;;;;;;24.90;87.90;;;;;;8325959;28;19917;-63
2021/05/28 11:11:37;;;;;;;;;;;24.30;90.10;;;;;;8325355;28;19916;-63
2021/05/28 11:15:37;;;;;;;;;;;24.90;85.10;;;;;;8331401;28;19924;-63
2021/05/28 11:19:42;;;;;;;;;;;25.40;81.00;;;;;;8359775;28;20355;-63
2021/05/28 11:23:43;;;;;;;;;;;25.10;77.10;;;;;;8359317;28;19959;-63
2021/05/28 11:27:45;;;;;;;;;;;24.40;82.60;;;;;;8338622;28;19972;-63
2021/05/28 11:31:46;;;;;;;;;;;23.80;79.70;;;;;;8319172;28;19917;-63
2021/05/28 11:35:46;;;;;;;;;;;22.90;83.60;;;;;;8333102;28;19962;-63
2021/05/28 11:39:47;;;;;;;;;;;23.30;77.10;;;;;;8332390;28;19912;-63
2021/05/28 11:43:47;;;;;;;;;;;24.20;83.60;;;;;;8359865;28;19909;-63
2021/05/28 11:47:52;;;;;;;;;;;24.90;75.20;;;;;;8359332;28;19912;-63
2021/05/28 11:52:05;;;;;;;;;;;24.30;73.00;;;;;;8359630;28;19913;-63
2021/05/28 11:56:05;;;;;;;;;;;24.80;76.60;;;;;;8335026;28;19913;-63
2021/05/28 12:00:10;;;;;;;;;;;24.90;67.30;;;;;;8331959;28;19932;-61
2021/05/28 12:04:14;;;;;;;;;;;24.20;69.40;;;;;;8324719;28;19913;-61
2021/05/28 12:08:15;;;;;;;;;;;24.10;77.30;;;;;;8322477;28;19963;-61
2021/05/28 12:12:15;;;;;;;;;;;24.70;74.90;;;;;;8307816;28;19998;-61
2021/05/28 12:16:20;;;;;;;;;;;24.10;74.90;;;;;;8325588;28;20619;-62
2021/05/28 12:20:22;;;;;;;;;;;23.90;76.20;;;;;;8308349;28;19909;-61
2021/05/28 12:24:23;;;;;;;;;;;23.90;75.10;;;;;;8326377;28;19916;-60
2021/05/28 12:28:30;;;;;;;;;;;23.90;74.00;;;;;;8308294;28;20340;-61
2021/05/28 12:32:31;;;;;;;;;;;24.10;73.60;;;;;;8308856;28;20363;-62
2021/05/28 12:36:33;;;;;;;;;;;25.20;73.40;;;;;;8330846;28;19917;-61
2021/05/28 12:40:34;;;;;;;;;;;26.50;65.80;;;;;;8331861;28;20110;-63
2021/05/28 12:44:35;;;;;;;;;;;28.00;67.30;;;;;;8332636;28;19917;-63
2021/05/28 12:48:43;;;;;;;;;;;29.60;53.30;;;;;;8332142;28;20443;-62
2021/05/28 12:52:51;;;;;;;;;;;26.10;56.40;;;;;;8330433;28;20337;-65
2021/05/28 12:56:51;;;;;;;;;;;23.00;75.30;;;;;;8364036;28;19916;-65
2021/05/28 13:00:56;;;;;;;;;;;22.80;73.30;;;;;;8362790;28;20343;-65
2021/05/28 13:04:56;;;;;;;;;;;23.00;76.70;;;;;;8338196;28;20294;-65
2021/05/28 13:09:03;;;;;;;;;;;24.70;74.50;;;;;;8332863;28;19963;-63
2021/05/28 13:13:16;;;;;;;;;;;31.10;59.70;;;;;;8335737;28;19921;-64
2021/05/28 13:17:19;;;;;;;;;;;36.10;45.30;;;;;;8320614;28;20401;-63
2021/05/28 13:21:28;;;;;;;;;;;35.90;40.40;;;;;;8346812;28;19920;-64
2021/05/28 13:25:40;;;;;;;;;;;36.90;37.70;;;;;;8342379;28;20291;-64
2021/05/28 13:29:45;;;;;;;;;;;39.50;35.10;;;;;;8332121;28;19963;-64
2021/05/28 13:33:48;;;;;;;;;;;39.90;33.70;;;;;;8345194;28;20020;-65
2021/05/28 13:37:48;;;;;;;;;;;40.50;31.10;;;;;;8345743;28;19956;-65
2021/05/28 13:41:51;;;;;;;;;;;37.80;32.80;;;;;;8341874;28;20386;-64
2021/05/28 13:45:52;;;;;;;;;;;33.60;37.10;;;;;;8344913;28;20008;-64
2021/05/28 13:49:54;;;;;;;;;;;29.70;47.20;;;;;;8346625;28;20283;-64
2021/05/28 13:53:54;;;;;;;;;;;32.60;44.50;;;;;;8344489;28;20019;-64
2021/05/28 13:57:55;;;;;;;;;;;33.90;40.90;;;;;;8328629;28;19909;-64
2021/05/28 14:01:55;;;;;;;;;;;30.70;43.50;;;;;;8330122;28;19959;-64
2021/05/28 14:05:56;;;;;;;;;;;28.20;47.40;;;;;;8335680;28;20298;-64
2021/05/28 14:09:56;;;;;;;;;;;26.30;50.10;;;;;;8333670;28;19924;-64
2021/05/28 14:13:57;;;;;;;;;;;26.30;49.30;;;;;;8327806;28;19913;-64
2021/05/28 14:17:58;;;;;;;;;;;27.60;50.50;;;;;;8338463;28;20074;-65
2021/05/28 14:21:58;;;;;;;;;;;31.90;46.50;;;;;;8342865;28;19913;-65
2021/05/28 14:25:59;;;;;;;;;;;34.70;39.60;;;;;;8341718;28;19917;-63
2021/05/28 14:29:59;;;;;;;;;;;27.10;46.80;;;;;;8343698;28;19916;-64
2021/05/28 14:34:00;;;;;;;;;;;23.70;57.40;;;;;;8342181;28;19917;-64
2021/05/28 14:38:01;;;;;;;;;;;28.10;52.00;;;;;;8341479;28;19913;-64
2021/05/28 14:42:02;;;;;;;;;;;31.90;45.00;;;;;;8339641;28;19914;-64
2021/05/28 14:46:03;;;;;;;;;;;33.10;44.00;;;;;;8340097;28;19921;-64
2021/05/28 14:50:04;;;;;;;;;;;34.40;40.00;;;;;;8338008;28;19913;-64
2021/05/28 14:54:05;;;;;;;;;;;32.00;42.10;;;;;;8324251;28;20831;-63
2021/05/28 14:58:05;;;;;;;;;;;30.70;44.80;;;;;;8311853;28;19917;-64
2021/05/28 15:02:06;;;;;;;;;;;32.10;43.90;;;;;;8328871;28;19960;-65
2021/05/28 15:06:07;;;;;;;;;;;34.50;40.20;;;;;;8322385;28;19913;-65
2021/05/28 15:10:07;;;;;;;;;;;35.90;38.50;;;;;;8346485;28;19967;-65
2021/05/28 15:14:08;;;;;;;;;;;33.80;39.50;;;;;;8324140;28;19917;-64
2021/05/28 15:18:09;;;;;;;;;;;31.00;44.50;;;;;;8318520;28;20402;-65
2021/05/28 15:22:09;;;;;;;;;;;28.70;48.10;;;;;;8334488;28;19920;-65
2021/05/28 15:26:10;;;;;;;;;;;30.50;46.50;;;;;;8333719;28;19994;-65
2021/05/28 15:30:11;;;;;;;;;;;33.50;40.10;;;;;;8312986;28;19944;-64
2021/05/28 15:34:12;;;;;;;;;;;34.90;37.80;;;;;;8342203;28;19927;-66
2021/05/28 15:38:12;;;;;;;;;;;36.10;36.40;;;;;;8342564;28;20030;-65
2021/05/28 15:42:13;;;;;;;;;;;37.20;35.60;;;;;;8343640;28;19967;-65
2021/05/28 15:46:13;;;;;;;;;;;38.40;33.00;;;;;;8334429;28;19917;-65
2021/05/28 15:50:18;;;;;;;;;;;37.30;31.60;;;;;;8345147;28;19978;-65
2021/05/28 15:54:19;;;;;;;;;;;35.60;36.50;;;;;;8333461;28;19917;-65
2021/05/28 15:58:20;;;;;;;;;;;37.10;33.60;;;;;;8337534;28;19924;-65
2021/05/28 16:02:20;;;;;;;;;;;38.30;32.10;;;;;;8334795;28;20011;-64
2021/05/28 16:06:21;;;;;;;;;;;36.80;31.60;;;;;;8326663;28;20498;-64
2021/05/28 16:10:21;;;;;;;;;;;31.80;38.70;;;;;;8329038;28;20295;-64
2021/05/28 16:14:22;;;;;;;;;;;33.60;38.30;;;;;;8331581;28;19913;-65
2021/05/28 16:18:22;;;;;;;;;;;35.90;35.50;;;;;;8314164;28;19971;-65
2021/05/28 16:22:23;;;;;;;;;;;37.30;33.90;;;;;;8334715;28;19913;-64
2021/05/28 16:26:23;;;;;;;;;;;37.00;34.00;;;;;;8356299;28;20416;-64
2021/05/28 16:30:25;;;;;;;;;;;37.00;33.40;;;;;;8361131;28;20375;-64
2021/05/28 16:34:25;;;;;;;;;;;35.80;34.10;;;;;;8357585;28;20405;-64
2021/05/28 16:38:26;;;;;;;;;;;33.20;37.60;;;;;;8364938;28;19956;-64
2021/05/28 16:42:28;;;;;;;;;;;31.50;40.90;;;;;;8337244;28;19928;-64
2021/05/28 16:46:28;;;;;;;;;;;30.40;42.60;;;;;;8333859;28;19921;-63
2021/05/28 16:50:53;;;;;;;;;;;28.90;44.10;;;;;;8335912;28;20532;-64
2021/05/28 16:54:50;;;;;;;;;;;27.40;47.50;;;;;;8314237;28;20298;-64
2021/05/28 16:58:50;;;;;;;;;;;26.60;51.10;;;;;;8306108;28;19955;-64
2021/05/28 17:02:52;;;;;;;;;;;27.70;50.60;;;;;;8327670;28;19960;-64
2021/05/28 17:06:53;;;;;;;;;;;29.60;47.10;;;;;;8307137;28;20388;-65
2021/05/28 17:10:53;;;;;;;;;;;31.10;46.10;;;;;;8309228;28;19917;-64
2021/05/28 17:14:54;;;;;;;;;;;29.10;46.40;;;;;;8301153;28;19921;-64
2021/05/28 17:18:55;;;;;;;;;;;27.50;48.70;;;;;;8325578;28;19929;-64
2021/05/28 17:22:55;;;;;;;;;;;25.10;53.40;;;;;;8308008;28;20474;-64
2021/05/28 17:26:56;;;;;;;;;;;23.90;53.60;;;;;;8307917;28;19993;-64
2021/05/28 17:30:56;;;;;;;;;;;22.90;56.80;;;;;;8299050;28;19967;-64
2021/05/28 17:34:57;;;;;;;;;;;22.10;57.90;;;;;;8326205;28;19917;-64
2021/05/28 17:38:57;;;;;;;;;;;21.70;59.30;;;;;;8338075;28;19974;-65
2021/05/28 17:42:58;;;;;;;;;;;21.40;60.60;;;;;;8333677;28;20042;-64
2021/05/28 17:46:58;;;;;;;;;;;20.80;62.10;;;;;;8343892;28;19952;-64
2021/05/28 17:50:59;;;;;;;;;;;20.50;63.90;;;;;;8336695;28;19937;-63
2021/05/28 17:54:59;;;;;;;;;;;20.10;65.50;;;;;;8341976;28;19975;-64
2021/05/28 17:58:59;;;;;;;;;;;19.50;68.70;;;;;;8340132;28;20057;-64
2021/05/28 18:03:00;;;;;;;;;;;18.90;71.30;;;;;;8333935;28;19920;-64
2021/05/28 18:07:03;;;;;;;;;;;18.50;74.20;;;;;;8344894;28;19913;-65
2021/05/28 18:11:03;;;;;;;;;;;18.00;77.00;;;;;;8327375;28;19983;-63
2021/05/28 18:15:04;;;;;;;;;;;17.60;80.20;;;;;;8325226;28;20276;-62
2021/05/28 18:19:05;;;;;;;;;;;17.30;83.70;;;;;;8331682;28;19966;-62
2021/05/28 18:23:06;;;;;;;;;;;16.80;90.00;;;;;;8335611;28;19913;-62
2021/05/28 18:27:07;;;;;;;;;;;16.60;91.10;;;;;;8326296;28;19975;-63
2021/05/28 18:31:07;;;;;;;;;;;16.10;94.20;;;;;;8338806;28;19913;-63
2021/05/28 18:35:09;;;;;;;;;;;15.60;97.60;;;;;;8310323;28;19928;-63
2021/05/28 18:39:10;;;;;;;;;;;15.40;99.90;;;;;;8326913;28;20133;-63
2021/05/28 18:43:10;;;;;;;;;;;15.20;99.90;;;;;;8326424;28;19936;-62
2021/05/28 18:47:11;;;;;;;;;;;14.80;99.90;;;;;;8332083;28;19920;-63
2021/05/28 18:51:11;;;;;;;;;;;14.50;99.90;;;;;;8341334;28;20015;-63
2021/05/28 18:55:13;;;;;;;;;;;14.20;99.90;;;;;;8342790;28;19927;-64
2021/05/28 18:59:14;;;;;;;;;;;14.10;99.90;;;;;;8342294;28;20000;-63
2021/05/28 19:03:15;;;;;;;;;;;14.10;99.90;;;;;;8323037;28;20386;-63
2021/05/28 19:07:16;;;;;;;;;;;13.90;99.90;;;;;;8336910;28;19909;-63
2021/05/28 19:11:16;;;;;;;;;;;13.70;99.90;;;;;;8350496;28;20348;-64
2021/05/28 19:15:17;;;;;;;;;;;13.50;99.90;;;;;;8326637;28;19956;-64
2021/05/28 19:19:18;;;;;;;;;;;13.40;99.90;;;;;;8344046;28;19959;-63
2021/05/28 19:23:19;;;;;;;;;;;13.50;99.90;;;;;;8334843;28;19966;-64
2021/05/28 19:27:19;;;;;;;;;;;13.40;99.90;;;;;;8341660;28;19960;-64
2021/05/28 19:31:20;;;;;;;;;;;13.40;99.90;;;;;;8300948;28;20457;-65
2021/05/28 19:35:20;;;;;;;;;;;13.40;99.90;;;;;;8308561;28;19917;-64
2021/05/28 19:39:21;;;;;;;;;;;13.40;99.90;;;;;;8283946;28;19921;-64
2021/05/28 19:43:22;;;;;;;;;;;13.20;99.90;;;;;;8287783;28;19917;-64
2021/05/28 19:47:24;;;;;;;;;;;13.10;99.90;;;;;;8313830;28;20660;-64
2021/05/28 19:51:26;;;;;;;;;;;13.10;99.90;;;;;;8322495;28;19913;-63
2021/05/28 19:55:42;;;;;;;;;;;13.00;99.90;;;;;;8323220;28;22443;-63
2021/05/28 19:59:42;;;;;;;;;;;13.00;99.90;;;;;;8341554;28;20286;-63
2021/05/28 20:03:43;;;;;;;;;;;12.90;99.90;;;;;;8341428;28;19908;-63
2021/05/28 20:07:43;;;;;;;;;;;13.00;99.90;;;;;;8311298;28;19914;-63
2021/05/28 20:14:24;;;;;;;;;;;13.00;99.90;;;;;;8343059;28;20172;-63
2021/05/28 20:16:19;;;;;;;;;;;12.90;99.90;;;;;;8372061;22;20016;-64
2021/05/28 20:20:20;;;;;;;;;;;12.90;99.90;;;;;;8339271;28;20283;-64
2021/05/28 20:24:20;;;;;;;;;;;12.90;99.90;;;;;;8342691;28;19958;-63
2021/05/28 20:28:21;;;;;;;;;;;12.90;99.90;;;;;;8339919;28;19929;-64
2021/05/28 20:32:22;;;;;;;;;;;12.80;99.90;;;;;;8340769;28;20015;-64
2021/05/28 20:36:22;;;;;;;;;;;12.70;99.90;;;;;;8340987;28;19963;-64
2021/05/28 20:40:23;;;;;;;;;;;12.60;99.90;;;;;;8340951;28;19909;-64
2021/05/28 20:44:23;;;;;;;;;;;12.50;99.90;;;;;;8339260;28;19909;-63
2021/05/28 20:48:24;;;;;;;;;;;12.30;99.90;;;;;;8353135;28;19913;-64
2021/05/28 20:52:27;;;;;;;;;;;12.40;99.90;;;;;;8356899;28;20374;-64
2021/05/28 21:00:28;;;;;;;;;;;12.30;99.90;;;;;;8353888;28;19909;-64
2021/05/28 21:08:32;;;;;;;;;;;12.20;99.90;;;;;;8363778;28;20066;-64
2021/05/28 21:12:33;;;;;;;;;;;12.20;99.90;;;;;;8345851;28;19913;-64
2021/05/28 21:16:34;;;;;;;;;;;12.20;99.90;;;;;;8363582;28;19928;-64
2021/05/28 21:20:35;;;;;;;;;;;12.10;99.90;;;;;;8345277;28;20504;-64
2021/05/28 21:24:35;;;;;;;;;;;12.10;99.90;;;;;;8363328;28;19916;-64
2021/05/28 21:28:36;;;;;;;;;;;12.00;99.90;;;;;;8330408;28;19992;-64
2021/05/28 21:32:37;;;;;;;;;;;11.80;99.90;;;;;;8330261;28;19920;-63
2021/05/28 21:36:37;;;;;;;;;;;11.90;99.90;;;;;;8357551;28;19959;-64
2021/05/28 21:40:38;;;;;;;;;;;11.80;99.90;;;;;;8362320;28;19913;-63
2021/05/28 21:44:38;;;;;;;;;;;11.80;99.90;;;;;;8362635;28;20367;-64
2021/05/28 21:48:39;;;;;;;;;;;11.70;99.90;;;;;;8362542;28;19974;-64
2021/05/28 21:52:39;;;;;;;;;;;11.60;99.90;;;;;;8362751;28;19920;-63
2021/05/28 21:56:40;;;;;;;;;;;11.50;99.90;;;;;;8362744;28;19909;-63
2021/05/28 22:00:40;;;;;;;;;;;11.40;99.90;;;;;;8362007;28;20401;-63
2021/05/28 22:04:41;;;;;;;;;;;11.30;99.90;;;;;;8361869;28;19916;-64
2021/05/28 22:08:41;;;;;;;;;;;11.30;99.90;;;;;;8361853;28;20271;-63
2021/05/28 22:12:42;;;;;;;;;;;11.20;99.90;;;;;;8362096;28;19974;-63
2021/05/28 22:16:43;;;;;;;;;;;11.10;99.90;;;;;;8361682;28;19924;-64
2021/05/28 22:20:43;;;;;;;;;;;11.00;99.90;;;;;;8361622;28;19994;-64
2021/05/28 22:24:44;;;;;;;;;;;11.00;99.90;;;;;;8361760;28;19974;-63
2021/05/28 22:28:58;;;;;;;;;;;11.00;99.90;;;;;;8361967;28;19908;-63
2021/05/28 22:37:19;;;;;;;;;;;11.00;99.90;;;;;;8328759;28;19920;-63
2021/05/28 22:41:20;;;;;;;;;;;11.20;99.90;;;;;;8327900;28;20275;-63
2021/05/28 22:45:27;;;;;;;;;;;11.10;99.90;;;;;;8327578;28;20004;-63
2021/05/28 22:49:31;;;;;;;;;;;11.20;99.90;;;;;;8326070;28;19909;-63
2021/05/28 22:53:32;;;;;;;;;;;11.20;99.90;;;;;;8326109;28;19914;-63
2021/05/28 22:57:32;;;;;;;;;;;11.00;99.90;;;;;;8308971;28;20020;-63
2021/05/28 23:01:33;;;;;;;;;;;10.90;99.90;;;;;;8327195;28;19931;-64
2021/05/28 23:05:34;;;;;;;;;;;10.90;99.90;;;;;;8352926;28;19909;-63
2021/05/28 23:13:57;;;;;;;;;;;10.80;99.90;;;;;;8327021;28;19974;-64
2021/05/28 23:17:57;;;;;;;;;;;10.80;99.90;;;;;;8358238;28;19917;-64
2021/05/28 23:21:58;;;;;;;;;;;10.90;99.90;;;;;;8342035;28;19916;-64
2021/05/28 23:25:58;;;;;;;;;;;10.90;99.90;;;;;;8359752;28;19921;-64
2021/05/28 23:29:59;;;;;;;;;;;10.90;99.90;;;;;;8358316;28;19912;-64
2021/05/28 23:33:59;;;;;;;;;;;10.80;99.90;;;;;;8345742;28;20000;-64
2021/05/28 23:38:00;;;;;;;;;;;10.70;99.90;;;;;;8325883;28;19917;-64
2021/05/28 23:42:07;;;;;;;;;;;10.50;99.90;;;;;;8326450;28;19959;-64
2021/05/28 23:46:08;;;;;;;;;;;10.50;99.90;;;;;;8326205;28;19980;-64
2021/05/28 23:50:12;;;;;;;;;;;10.40;99.90;;;;;;8326055;28;19909;-64